Time;durP1;ratioP1;P1;durP2;ratioP2;P2;SDS_P1;SDS_P2;PMS_P1;PMS_P2;Temp;Humidity;BMP_temperature;BMP_pressure;BME280_temperature;BME280_humidity;BME280_pressure;Samples;Min_cycle;Max_cycle;Signal;HPM_P1;HPM_P2
2021/10/18 00:00:40;;;;;;;41.75;33.13;;;307.60;2304.00;;;;;;5073963;28;20055;-78
2021/10/18 00:03:05;;;;;;;45.22;33.17;;;307.60;2304.00;;;;;;5074049;28;20456;-77
2021/10/18 00:05:32;;;;;;;41.15;33.40;;;307.60;2304.00;;;;;;5074251;28;20024;-80
2021/10/18 00:07:57;;;;;;;46.28;33.90;;;307.60;2304.00;;;;;;5075619;28;20025;-81
2021/10/18 00:10:23;;;;;;;39.35;30.38;;;307.60;2304.00;;;;;;5075515;28;20510;-79
2021/10/18 00:12:49;;;;;;;38.05;28.95;;;307.70;2304.00;;;;;;5073999;28;20028;-79
2021/10/18 00:15:17;;;;;;;38.78;30.90;;;307.60;2304.00;;;;;;5073881;28;20043;-77
2021/10/18 00:17:44;;;;;;;41.17;31.90;;;307.60;2304.00;;;;;;5074039;28;20021;-82
2021/10/18 00:20:11;;;;;;;48.20;35.00;;;307.60;2304.00;;;;;;5074019;28;20085;-80
2021/10/18 00:22:38;;;;;;;43.83;35.25;;;307.70;2304.00;;;;;;5073584;28;20534;-80
2021/10/18 00:25:04;;;;;;;48.28;33.65;;;307.50;2304.00;;;;;;5074027;28;20380;-80
2021/10/18 00:27:30;;;;;;;70.03;49.63;;;307.60;2304.00;;;;;;5073741;28;20120;-79
2021/10/18 00:29:55;;;;;;;82.88;51.67;;;307.60;2304.00;;;;;;5073569;28;20089;-78
2021/10/18 00:32:21;;;;;;;77.97;51.15;;;307.30;2304.00;;;;;;5073588;28;20485;-79
2021/10/18 00:34:47;;;;;;;74.43;51.58;;;307.30;2304.00;;;;;;5073299;28;20450;-79
2021/10/18 00:37:13;;;;;;;72.80;48.10;;;307.30;2304.00;;;;;;5074181;28;20051;-81
2021/10/18 00:39:39;;;;;;;71.45;47.35;;;307.30;2304.00;;;;;;5074383;28;20384;-80
2021/10/18 00:42:05;;;;;;;71.63;50.40;;;307.40;2304.00;;;;;;5074540;28;20464;-77
2021/10/18 00:44:34;;;;;;;67.47;46.53;;;307.20;2304.00;;;;;;5073251;28;20035;-79
2021/10/18 00:47:01;;;;;;;66.93;43.78;;;307.30;2304.00;;;;;;5073438;28;20534;-80
2021/10/18 00:49:27;;;;;;;61.45;43.20;;;307.30;2304.00;;;;;;5073384;28;20020;-79
2021/10/18 00:51:53;;;;;;;72.22;47.10;;;307.30;2304.00;;;;;;5072446;28;20028;-80
2021/10/18 00:54:19;;;;;;;87.22;50.75;;;307.40;2304.00;;;;;;5073307;28;20028;-81
2021/10/18 00:56:45;;;;;;;135.00;72.50;;;307.40;2304.00;;;;;;5073704;28;20119;-78
2021/10/18 00:59:11;;;;;;;105.10;62.38;;;307.40;2304.00;;;;;;5074170;28;20380;-78
2021/10/18 01:01:37;;;;;;;91.30;54.10;;;307.40;2304.00;;;;;;5073054;28;20037;-80
2021/10/18 01:04:04;;;;;;;73.30;47.50;;;307.40;2304.00;;;;;;5072745;28;20024;-77
2021/10/18 01:06:30;;;;;;;62.58;43.10;;;307.40;2304.00;;;;;;5072820;28;20115;-81
2021/10/18 01:08:56;;;;;;;59.05;42.20;;;307.40;2304.00;;;;;;5073175;28;20016;-81
2021/10/18 01:11:23;;;;;;;54.28;40.10;;;307.40;2304.00;;;;;;5072645;28;20123;-80
2021/10/18 01:13:49;;;;;;;57.88;39.42;;;307.60;2304.00;;;;;;5072893;28;20417;-80
2021/10/18 01:16:15;;;;;;;53.53;38.72;;;307.40;2304.00;;;;;;5072989;28;20024;-78
2021/10/18 01:18:41;;;;;;;51.30;38.70;;;307.40;2304.00;;;;;;5074305;28;20043;-79
2021/10/18 01:21:08;;;;;;;63.03;45.75;;;307.50;2304.00;;;;;;5072882;28;20029;-77
2021/10/18 01:23:34;;;;;;;61.88;44.65;;;307.30;2304.00;;;;;;5073012;28;20025;-79
2021/10/18 01:25:59;;;;;;;57.88;42.90;;;307.40;2304.00;;;;;;5073879;28;20024;-79
2021/10/18 01:28:25;;;;;;;51.67;39.17;;;307.40;2304.00;;;;;;5072856;28;20029;-80
2021/10/18 01:30:51;;;;;;;52.38;37.00;;;307.40;2304.00;;;;;;5072827;28;20488;-79
2021/10/18 01:33:17;;;;;;;48.63;38.40;;;307.40;2304.00;;;;;;5072144;28;20078;-80
2021/10/18 01:35:43;;;;;;;48.45;36.90;;;307.40;2304.00;;;;;;5072636;28;20049;-79
2021/10/18 01:38:09;;;;;;;45.85;35.45;;;307.40;2304.00;;;;;;5072631;28;20032;-80
2021/10/18 01:40:35;;;;;;;47.15;37.25;;;307.30;2304.00;;;;;;5072615;28;20420;-78
2021/10/18 01:43:01;;;;;;;52.85;39.15;;;307.30;2304.00;;;;;;5072888;28;20020;-80
2021/10/18 01:45:27;;;;;;;55.63;42.17;;;282.50;2278.40;;;;;;5072814;28;20024;-79
2021/10/18 01:47:53;;;;;;;60.05;44.08;;;307.20;2304.00;;;;;;5072896;28;20031;-80
2021/10/18 01:50:21;;;;;;;74.40;54.08;;;307.20;2304.00;;;;;;5073111;28;20033;-78
2021/10/18 01:52:49;;;;;;;93.65;60.67;;;282.50;2278.40;;;;;;5073211;28;20032;-80
2021/10/18 01:55:15;;;;;;;75.47;52.22;;;282.50;2278.40;;;;;;5072744;28;20025;-77
2021/10/18 01:57:41;;;;;;;74.03;49.97;;;282.50;2278.40;;;;;;5072912;28;20056;-82
2021/10/18 02:00:08;;;;;;;65.10;47.80;;;282.50;2278.40;;;;;;5072699;28;20043;-80
2021/10/18 02:02:34;;;;;;;61.40;47.80;;;307.20;2304.00;;;;;;5072727;28;20115;-80
2021/10/18 02:05:00;;;;;;;75.43;51.00;;;282.40;2278.40;;;;;;5076843;28;20079;-79
2021/10/18 02:07:26;;;;;;;85.78;58.22;;;282.50;2278.40;;;;;;5076842;28;20024;-79
2021/10/18 02:09:54;;;;;;;75.35;52.63;;;282.40;2278.40;;;;;;5076692;28;20119;-79
2021/10/18 02:12:22;;;;;;;60.25;41.25;;;282.30;2278.40;;;;;;5076739;28;20024;-77
2021/10/18 02:14:48;;;;;;;48.58;36.55;;;282.40;2278.40;;;;;;5077574;28;20373;-79
2021/10/18 02:17:13;;;;;;;49.72;37.70;;;282.20;2278.40;;;;;;5080044;28;20032;-78
2021/10/18 02:19:40;;;;;;;48.05;34.90;;;282.20;2278.40;;;;;;5084228;28;20066;-78
2021/10/18 02:22:05;;;;;;;44.22;34.17;;;282.40;2278.40;;;;;;5084447;28;20043;-77
2021/10/18 02:24:31;;;;;;;48.40;37.67;;;282.40;2278.40;;;;;;5082360;28;20520;-79
2021/10/18 02:26:57;;;;;;;48.10;38.78;;;282.40;2278.40;;;;;;5082778;28;20194;-78
2021/10/18 02:29:23;;;;;;;56.00;42.53;;;282.40;2278.40;;;;;;5082054;28;20050;-76
2021/10/18 02:31:49;;;;;;;62.08;47.35;;;282.30;2278.40;;;;;;5082349;28;20059;-79
2021/10/18 02:34:15;;;;;;;51.15;36.78;;;282.20;2278.40;;;;;;5082260;28;20048;-77
2021/10/18 02:36:40;;;;;;;41.58;32.72;;;282.00;2278.40;;;;;;5081473;28;20399;-78
2021/10/18 02:39:06;;;;;;;45.47;35.28;;;282.10;2278.40;;;;;;5081091;28;20021;-78
2021/10/18 02:41:32;;;;;;;44.20;33.60;;;282.20;2278.40;;;;;;5081204;28;20461;-78
2021/10/18 02:43:58;;;;;;;44.53;33.20;;;282.20;2278.40;;;;;;5076099;28;20372;-80
2021/10/18 02:46:24;;;;;;;48.97;37.10;;;282.30;2278.40;;;;;;5075655;28;20024;-78
2021/10/18 02:48:50;;;;;;;52.85;32.90;;;282.20;2278.40;;;;;;5076183;28;20119;-79
2021/10/18 02:51:15;;;;;;;43.00;32.50;;;282.30;2278.40;;;;;;5075567;28;20025;-80
2021/10/18 02:53:41;;;;;;;40.03;29.63;;;282.00;2278.40;;;;;;5075175;28;20032;-80
2021/10/18 02:56:07;;;;;;;41.58;32.30;;;282.20;2278.40;;;;;;5075758;28;20021;-80
2021/10/18 02:58:33;;;;;;;46.15;32.38;;;282.20;2278.40;;;;;;5075225;28;20029;-78
2021/10/18 03:00:59;;;;;;;45.13;33.55;;;282.30;2278.40;;;;;;5075366;28;20043;-79
2021/10/18 03:03:24;;;;;;;50.38;35.63;;;282.30;2278.40;;;;;;5075026;28;20028;-78
2021/10/18 03:05:50;;;;;;;53.20;38.92;;;282.20;2278.40;;;;;;5076612;28;20025;-78
2021/10/18 03:08:16;;;;;;;54.78;41.22;;;282.20;2278.40;;;;;;5075341;28;20120;-80
2021/10/18 03:10:42;;;;;;;51.70;40.67;;;282.20;2278.40;;;;;;5075089;28;20024;-79
2021/10/18 03:13:08;;;;;;;53.65;37.38;;;282.20;2278.40;;;;;;5074971;28;20078;-80
2021/10/18 03:15:35;;;;;;;54.67;40.10;;;282.20;2278.40;;;;;;5074630;28;20028;-77
2021/10/18 03:18:01;;;;;;;54.45;38.58;;;282.20;2278.40;;;;;;5074872;28;20482;-77
2021/10/18 03:20:27;;;;;;;103.70;67.55;;;282.20;2278.40;;;;;;5076194;28;20111;-79
2021/10/18 03:22:56;;;;;;;145.95;87.10;;;282.20;2278.40;;;;;;5075117;28;20046;-79
2021/10/18 03:25:22;;;;;;;153.20;85.93;;;282.20;2278.40;;;;;;5074712;28;20086;-78
2021/10/18 03:27:48;;;;;;;84.65;54.22;;;282.20;2278.40;;;;;;5074883;28;20120;-80
2021/10/18 03:30:15;;;;;;;83.72;55.33;;;282.20;2278.40;;;;;;5074888;28;20443;-79
2021/10/18 03:32:40;;;;;;;71.80;50.72;;;282.30;2278.40;;;;;;5075523;28;20491;-78
2021/10/18 03:35:07;;;;;;;71.25;46.78;;;282.30;2278.40;;;;;;5074850;28;20044;-79
2021/10/18 03:37:33;;;;;;;54.85;43.22;;;282.20;2278.40;;;;;;5075937;28;20025;-78
2021/10/18 03:39:59;;;;;;;50.03;39.28;;;282.20;2278.40;;;;;;5074187;28;20040;-78
2021/10/18 03:42:26;;;;;;;47.80;35.05;;;282.10;2278.40;;;;;;5074594;28;20021;-78
2021/10/18 03:44:52;;;;;;;37.92;31.63;;;282.20;2278.40;;;;;;5075976;28;20020;-79
2021/10/18 03:47:18;;;;;;;41.20;30.17;;;282.20;2278.40;;;;;;5074289;28;20029;-80
2021/10/18 03:49:44;;;;;;;42.05;30.75;;;282.10;2278.40;;;;;;5074538;28;20024;-80
2021/10/18 03:52:10;;;;;;;33.92;27.77;;;282.20;2278.40;;;;;;5074324;28;20078;-82
2021/10/18 03:54:36;;;;;;;40.95;30.70;;;282.10;2278.40;;;;;;5074198;28;20029;-79
2021/10/18 03:57:02;;;;;;;38.53;28.20;;;282.10;2278.40;;;;;;5074698;28;20031;-78
2021/10/18 03:59:28;;;;;;;41.17;31.83;;;282.10;2278.40;;;;;;5074427;28;20466;-77
2021/10/18 04:01:54;;;;;;;40.50;31.38;;;282.00;2278.40;;;;;;5075451;28;20115;-80
2021/10/18 04:04:19;;;;;;;48.97;35.92;;;281.90;2278.40;;;;;;5074118;28;20111;-79
2021/10/18 04:06:45;;;;;;;44.38;32.72;;;281.80;2278.40;;;;;;5073897;28;20031;-79
2021/10/18 04:09:12;;;;;;;45.50;32.42;;;282.00;2278.40;;;;;;5074205;28;20422;-79
2021/10/18 04:11:38;;;;;;;47.45;35.60;;;282.00;2278.40;;;;;;5074275;28;20040;-80
2021/10/18 04:14:08;;;;;;;112.82;99.65;;;282.00;2278.40;;;;;;5073927;28;20033;-77
2021/10/18 04:16:34;;;;;;;180.50;156.60;;;282.00;2278.40;;;;;;5075030;28;20115;-78
2021/10/18 04:19:00;;;;;;;109.60;97.00;;;282.00;2278.40;;;;;;5074528;28;20035;-78
2021/10/18 04:21:27;;;;;;;78.95;61.85;;;282.00;2278.40;;;;;;5073650;28;20036;-80
2021/10/18 04:23:53;;;;;;;76.97;57.45;;;281.80;2278.40;;;;;;5073740;28;20376;-78
2021/10/18 04:26:19;;;;;;;66.82;46.75;;;281.80;2278.40;;;;;;5072794;28;20477;-79
2021/10/18 04:28:45;;;;;;;72.90;52.20;;;281.80;2278.40;;;;;;5073611;28;20074;-80
2021/10/18 04:31:11;;;;;;;73.68;50.33;;;281.70;2278.40;;;;;;5073476;28;20056;-79
2021/10/18 04:33:36;;;;;;;72.57;51.15;;;281.60;2278.40;;;;;;5073400;28;20046;-80
2021/10/18 04:36:03;;;;;;;84.13;61.92;;;281.70;2278.40;;;;;;5074923;28;20444;-81
2021/10/18 04:38:29;;;;;;;77.43;56.50;;;281.70;2278.40;;;;;;5073617;28;20033;-79
2021/10/18 04:40:55;;;;;;;66.70;51.63;;;281.60;2278.40;;;;;;5073493;28;20067;-78
2021/10/18 04:43:20;;;;;;;73.32;56.90;;;256.90;2252.80;;;;;;5076920;28;20029;-77
2021/10/18 04:45:46;;;;;;;74.85;54.28;;;256.80;2252.80;;;;;;5077819;28;20358;-80
2021/10/18 04:48:12;;;;;;;65.85;50.50;;;256.60;2252.80;;;;;;5073210;28;20145;-77
2021/10/18 04:50:38;;;;;;;65.82;46.00;;;256.60;2252.80;;;;;;5074269;28;20066;-78
2021/10/18 04:53:04;;;;;;;63.05;46.25;;;256.80;2252.80;;;;;;5074568;28;20025;-80
2021/10/18 04:55:30;;;;;;;54.75;44.42;;;256.70;2252.80;;;;;;5073115;28;20032;-80
2021/10/18 04:58:01;;;;;;;53.85;42.38;;;256.60;2252.80;;;;;;5073084;28;20031;-79
2021/10/18 05:00:29;;;;;;;69.45;51.28;;;256.70;2252.80;;;;;;5073112;28;20032;-81
2021/10/18 05:02:55;;;;;;;71.53;53.45;;;256.70;2252.80;;;;;;5073042;28;20363;-77
2021/10/18 05:05:22;;;;;;;71.00;56.00;;;256.70;2252.80;;;;;;5073111;28;20124;-79
2021/10/18 05:08:05;;;;;;;65.47;44.85;;;256.60;2252.80;;;;;;5074317;28;20024;-79
2021/10/18 05:10:32;;;;;;;56.95;42.15;;;256.50;2252.80;;;;;;5072826;28;20036;-78
2021/10/18 05:12:58;;;;;;;57.25;39.78;;;256.70;2252.80;;;;;;5073013;28;20030;-79
2021/10/18 05:15:24;;;;;;;60.67;42.05;;;256.60;2252.80;;;;;;5073027;28;20024;-80
2021/10/18 05:17:50;;;;;;;60.90;43.42;;;256.70;2252.80;;;;;;5072755;28;20021;-78
2021/10/18 05:20:16;;;;;;;59.38;42.85;;;256.80;2252.80;;;;;;5072714;28;20087;-78
2021/10/18 05:22:42;;;;;;;66.25;47.17;;;256.70;2252.80;;;;;;5072630;28;20115;-79
2021/10/18 05:25:09;;;;;;;68.82;47.25;;;256.80;2252.80;;;;;;5074052;28;20108;-80
2021/10/18 05:27:36;;;;;;;78.40;52.50;;;256.80;2252.80;;;;;;5072923;28;20028;-80
2021/10/18 05:30:04;;;;;;;82.32;56.33;;;256.50;2252.80;;;;;;5073942;28;20024;-76
2021/10/18 05:32:30;;;;;;;81.88;57.88;;;256.20;2252.80;;;;;;5072480;28;20392;-78
2021/10/18 05:34:56;;;;;;;80.30;57.03;;;256.30;2252.80;;;;;;5073997;28;20041;-78
2021/10/18 05:37:23;;;;;;;89.93;61.03;;;256.40;2252.80;;;;;;5072485;28;20032;-80
2021/10/18 05:39:49;;;;;;;119.35;80.30;;;256.50;2252.80;;;;;;5072519;28;20075;-81
2021/10/18 05:42:15;;;;;;;103.88;69.20;;;256.50;2252.80;;;;;;5072750;28;20055;-79
2021/10/18 05:44:41;;;;;;;94.70;63.92;;;256.70;2252.80;;;;;;5073622;28;20028;-80
2021/10/18 05:47:07;;;;;;;95.22;66.65;;;256.70;2252.80;;;;;;5072541;28;20353;-78
2021/10/18 05:49:33;;;;;;;98.93;66.53;;;256.60;2252.80;;;;;;5072717;28;20082;-80
2021/10/18 05:52:01;;;;;;;94.40;59.97;;;256.40;2252.80;;;;;;5072410;28;20032;-80
2021/10/18 05:54:27;;;;;;;108.40;76.22;;;256.50;2252.80;;;;;;5074230;28;20047;-79
2021/10/18 05:56:53;;;;;;;88.70;59.80;;;256.40;2252.80;;;;;;5072594;28;20460;-80
2021/10/18 05:59:19;;;;;;;86.10;58.17;;;256.60;2252.80;;;;;;5072235;28;20039;-79
2021/10/18 06:01:45;;;;;;;83.85;58.08;;;256.90;2252.80;;;;;;5072364;28;20131;-80
2021/10/18 06:04:11;;;;;;;92.10;69.82;;;256.10;2252.80;;;;;;5072463;28;20459;-77
2021/10/18 06:06:37;;;;;;;82.50;59.10;;;256.70;2252.80;;;;;;5073433;28;20073;-79
2021/10/18 06:09:06;;;;;;;72.85;54.38;;;256.70;2252.80;;;;;;5072396;28;20074;-78
2021/10/18 06:11:33;;;;;;;67.38;50.90;;;256.90;2252.80;;;;;;5072402;28;20064;-78
2021/10/18 06:13:59;;;;;;;73.65;53.42;;;256.90;2252.80;;;;;;5073010;28;20103;-79
2021/10/18 06:16:25;;;;;;;76.20;54.60;;;281.60;2278.40;;;;;;5072406;28;20040;-79
2021/10/18 06:18:52;;;;;;;72.00;56.35;;;281.70;2278.40;;;;;;5072192;28;20396;-78
2021/10/18 06:21:17;;;;;;;80.38;59.35;;;281.70;2278.40;;;;;;5071820;28;20123;-79
2021/10/18 06:23:44;;;;;;;81.03;56.83;;;281.70;2278.40;;;;;;5071991;28;20090;-80
2021/10/18 06:26:10;;;;;;;66.43;52.50;;;281.60;2278.40;;;;;;5072139;28;20029;-79
2021/10/18 06:28:39;;;;;;;65.35;49.63;;;281.70;2278.40;;;;;;5072393;28;20116;-78
2021/10/18 06:31:05;;;;;;;64.68;46.95;;;281.80;2278.40;;;;;;5072122;28;20117;-81
2021/10/18 06:33:31;;;;;;;66.18;46.75;;;256.90;2252.80;;;;;;5071843;28;20028;-78
2021/10/18 06:35:57;;;;;;;62.25;43.05;;;281.70;2278.40;;;;;;5071784;28;20048;-80
2021/10/18 06:38:23;;;;;;;65.63;43.35;;;281.70;2278.40;;;;;;5072166;28;20021;-79
2021/10/18 06:40:50;;;;;;;66.78;45.88;;;281.60;2278.40;;;;;;5072779;28;20064;-80
2021/10/18 06:43:18;;;;;;;68.03;47.47;;;281.80;2278.40;;;;;;5071968;28;20052;-80
2021/10/18 06:45:44;;;;;;;66.32;47.75;;;281.80;2278.40;;;;;;5071910;28;20050;-79
2021/10/18 06:48:10;;;;;;;83.57;57.15;;;282.00;2278.40;;;;;;5071817;28;20025;-78
2021/10/18 06:50:38;;;;;;;71.75;51.97;;;282.00;2278.40;;;;;;5074044;28;20024;-79
2021/10/18 06:53:06;;;;;;;64.00;46.25;;;282.00;2278.40;;;;;;5075572;28;20020;-78
2021/10/18 06:55:33;;;;;;;71.60;51.33;;;282.00;2278.40;;;;;;5076458;28;20448;-79
2021/10/18 06:57:59;;;;;;;61.47;42.22;;;282.00;2278.40;;;;;;5075543;28;20028;-78
2021/10/18 07:00:25;;;;;;;61.35;52.38;;;282.10;2278.40;;;;;;5076699;28;20028;-79
2021/10/18 07:02:51;;;;;;;52.80;42.55;;;282.20;2278.40;;;;;;5074800;28;20040;-79
2021/10/18 07:05:17;;;;;;;68.15;53.08;;;282.20;2278.40;;;;;;5075446;28;20024;-79
2021/10/18 07:07:43;;;;;;;69.05;49.20;;;282.10;2278.40;;;;;;5075532;28;20028;-80
2021/10/18 07:10:10;;;;;;;63.80;48.83;;;282.20;2278.40;;;;;;5075474;28;20033;-80
2021/10/18 07:12:36;;;;;;;64.97;44.08;;;282.20;2278.40;;;;;;5075243;28;20025;-79
2021/10/18 07:15:03;;;;;;;55.72;40.75;;;282.30;2278.40;;;;;;5075211;28;20052;-79
2021/10/18 07:17:29;;;;;;;53.80;41.72;;;282.20;2278.40;;;;;;5074899;28;20123;-78
2021/10/18 07:19:56;;;;;;;47.67;36.08;;;282.20;2278.40;;;;;;5074939;28;20028;-78
2021/10/18 07:22:26;;;;;;;64.65;45.42;;;282.20;2278.40;;;;;;5074725;28;20474;-78
2021/10/18 07:24:53;;;;;;;59.25;42.15;;;282.30;2278.40;;;;;;5074925;28;20055;-82
2021/10/18 07:27:20;;;;;;;69.20;44.95;;;282.40;2278.40;;;;;;5074974;28;20464;-80
2021/10/18 07:29:46;;;;;;;56.45;38.72;;;281.90;2278.40;;;;;;5074698;28;20381;-77
2021/10/18 07:32:11;;;;;;;53.53;37.28;;;282.50;2278.40;;;;;;5074812;28;20032;-80
2021/10/18 07:34:37;;;;;;;53.40;38.53;;;307.20;2304.00;;;;;;5075909;28;20053;-77
2021/10/18 07:37:04;;;;;;;52.50;39.92;;;307.20;2304.00;;;;;;5074550;28;20040;-79
2021/10/18 07:39:31;;;;;;;49.95;37.85;;;307.30;2304.00;;;;;;5076186;28;20025;-77
2021/10/18 07:41:58;;;;;;;49.10;36.83;;;307.30;2304.00;;;;;;5074668;28;20032;-77
2021/10/18 07:44:25;;;;;;;56.85;41.15;;;307.50;2304.00;;;;;;5074425;28;20035;-79
2021/10/18 07:46:55;;;;;;;53.28;38.50;;;307.50;2304.00;;;;;;5074626;28;20059;-79
2021/10/18 07:49:27;;;;;;;49.55;36.72;;;307.70;2304.00;;;;;;5074604;28;20028;-80
2021/10/18 07:51:53;;;;;;;51.93;37.07;;;307.70;2304.00;;;;;;5075859;28;20024;-78
2021/10/18 07:54:19;;;;;;;55.15;38.58;;;307.80;2304.00;;;;;;5074498;28;20028;-80
2021/10/18 07:56:45;;;;;;;44.70;33.67;;;307.90;2304.00;;;;;;5074118;28;20377;-80
2021/10/18 07:59:10;;;;;;;43.05;32.85;;;308.00;2304.00;;;;;;5074193;28;20024;-80
2021/10/18 08:01:36;;;;;;;41.97;33.28;;;308.10;2304.00;;;;;;5074134;28;20032;-79
2021/10/18 08:04:02;;;;;;;48.42;35.13;;;308.10;2304.00;;;;;;5074144;28;20090;-78
2021/10/18 08:06:28;;;;;;;43.78;32.08;;;332.80;2329.60;;;;;;5073900;28;20028;-80
2021/10/18 08:08:55;;;;;;;44.55;33.53;;;332.90;2329.60;;;;;;5074243;28;20039;-80
2021/10/18 08:11:21;;;;;;;41.40;29.33;;;333.10;2329.60;;;;;;5073877;28;20036;-81
2021/10/18 08:13:48;;;;;;;36.13;28.30;;;333.10;2329.60;;;;;;5073832;28;20074;-76
2021/10/18 08:16:14;;;;;;;39.80;28.52;;;333.40;2329.60;;;;;;5074681;28;20024;-76
2021/10/18 08:18:40;;;;;;;46.60;30.83;;;333.30;2329.60;;;;;;5074757;28;20031;-75
2021/10/18 08:21:08;;;;;;;41.88;33.97;;;333.40;2329.60;;;;;;5074065;28;20191;-75
2021/10/18 08:23:34;;;;;;;34.30;29.05;;;333.40;2329.60;;;;;;5073556;28;20024;-77
2021/10/18 08:26:02;;;;;;;35.45;28.02;;;333.50;2329.60;;;;;;5073205;28;20384;-77
2021/10/18 08:28:28;;;;;;;37.55;24.83;;;333.50;2329.60;;;;;;5073496;28;20033;-76
2021/10/18 08:30:54;;;;;;;35.03;24.48;;;333.50;2329.60;;;;;;5073406;28;20443;-74
2021/10/18 08:33:20;;;;;;;38.00;31.83;;;333.50;2329.60;;;;;;5073123;28;20024;-76
2021/10/18 08:35:46;;;;;;;51.78;40.92;;;333.50;2329.60;;;;;;5072833;28;20150;-76
2021/10/18 08:46:02;;;;;;;34.58;25.60;;;358.60;2329.60;;;;;;5074479;28;20490;-76
2021/10/18 08:48:29;;;;;;;37.33;25.75;;;358.80;2329.60;;;;;;5074123;28;20067;-79
2021/10/18 08:50:55;;;;;;;36.95;29.65;;;359.00;2329.60;;;;;;5072990;28;20040;-77
2021/10/18 08:53:21;;;;;;;38.30;32.72;;;359.00;2329.60;;;;;;5072739;28;20029;-76
2021/10/18 08:55:47;;;;;;;36.22;29.42;;;359.10;2329.60;;;;;;5073028;28;20460;-75
2021/10/18 08:58:13;;;;;;;35.85;26.70;;;359.20;2329.60;;;;;;5074282;28;20400;-77
2021/10/18 09:00:51;;;;;;;30.05;22.25;;;359.20;2329.60;;;;;;5073531;28;20404;-76
2021/10/18 09:03:34;;;;;;;28.05;21.98;;;359.30;2329.60;;;;;;5074236;28;20035;-75
2021/10/18 09:06:19;;;;;;;;;;;359.30;2329.60;;;;;;5074302;28;20028;-75
2021/10/18 09:08:54;;;;;;;31.30;23.85;;;384.00;2329.60;;;;;;5072639;28;19916;-77
2021/10/18 09:11:21;;;;;;;28.38;24.05;;;384.10;2329.60;;;;;;5072688;28;20032;-77
2021/10/18 09:13:53;;;;;;;42.45;32.90;;;384.10;2329.60;;;;;;5073109;28;20376;-75
2021/10/18 09:16:24;;;;;;;38.22;29.13;;;384.30;2329.60;;;;;;5072430;28;20029;-75
2021/10/18 09:19:26;;;;;;;37.30;24.15;;;384.40;2329.60;;;;;;5072555;28;20361;-75
2021/10/18 09:21:54;;;;;;;31.30;24.75;;;384.60;2329.60;;;;;;5051014;28;20037;-77
2021/10/18 09:24:29;;;;;;;33.53;28.55;;;384.70;2329.60;;;;;;5069717;28;20114;-73
2021/10/18 09:26:58;;;;;;;35.33;27.25;;;384.80;2329.60;;;;;;5072570;28;20060;-76
2021/10/18 09:29:35;;;;;;;25.55;22.77;;;384.80;2329.60;;;;;;5072161;28;20106;-73
2021/10/18 09:32:04;;;;;;;29.77;25.50;;;384.80;2329.60;;;;;;5072558;28;20123;-73
2021/10/18 09:34:35;;;;;;;31.15;21.80;;;409.60;2355.20;;;;;;5072004;28;20083;-73
2021/10/18 09:37:12;;;;;;;23.58;16.98;;;409.70;2355.20;;;;;;5072074;28;20036;-75
2021/10/18 09:39:41;;;;;;;37.47;21.00;;;409.60;2355.20;;;;;;5072373;28;20029;-77
2021/10/18 09:42:15;;;;;;;24.58;18.13;;;409.60;2355.20;;;;;;5072248;28;20032;-76
2021/10/18 10:55:47;;;;;;;27.05;22.80;;;410.50;2355.20;;;;;;5076556;28;20028;-76
2021/10/18 10:58:34;;;;;;;26.85;22.75;;;410.50;2355.20;;;;;;5075215;28;20020;-75
2021/10/18 11:01:01;;;;;;;34.92;26.33;;;435.20;2355.20;;;;;;5074871;28;20037;-76
2021/10/18 11:03:36;;;;;;;38.17;28.20;;;435.30;2355.20;;;;;;5075113;28;20040;-76
2021/10/18 11:06:06;;;;;;;34.42;27.15;;;435.60;2355.20;;;;;;5075122;28;20032;-75
2021/10/18 11:08:50;;;;;;;31.52;25.83;;;435.90;2355.20;;;;;;5076015;28;20032;-77
2021/10/18 11:11:18;;;;;;;30.33;24.40;;;436.00;2355.20;;;;;;5075105;28;20062;-79
2021/10/18 11:13:51;;;;;;;31.35;25.08;;;436.10;2355.20;;;;;;5074726;28;20028;-76
2021/10/18 11:16:21;;;;;;;27.17;22.33;;;460.80;2380.80;;;;;;5075241;28;20150;-76
2021/10/18 11:18:50;;;;;;;31.90;28.38;;;460.90;2380.80;;;;;;5074876;28;20050;-77
2021/10/18 11:21:22;;;;;;;33.50;26.25;;;460.80;2380.80;;;;;;5075832;28;20025;-74
2021/10/18 11:24:14;;;;;;;31.42;27.02;;;436.10;2355.20;;;;;;5074839;28;20028;-76
2021/10/18 11:26:41;;;;;;;23.20;19.98;;;435.90;2355.20;;;;;;5074802;28;20123;-77
2021/10/18 11:29:12;;;;;;;22.92;19.63;;;435.80;2355.20;;;;;;5075369;28;20453;-76
2021/10/18 11:31:39;;;;;;;21.73;18.40;;;435.70;2355.20;;;;;;5074686;28;20078;-74
2021/10/18 11:34:11;;;;;;;23.92;20.42;;;435.60;2355.20;;;;;;5075476;28;20055;-75
2021/10/18 11:36:39;;;;;;;26.42;21.08;;;435.50;2355.20;;;;;;5074053;28;20039;-75
2021/10/18 11:39:21;;;;;;;27.60;20.63;;;435.40;2355.20;;;;;;5074473;28;20460;-74
2021/10/18 11:41:59;;;;;;;26.77;21.50;;;435.40;2355.20;;;;;;5074158;28;20412;-75
2021/10/18 11:44:55;;;;;;;23.67;19.98;;;435.30;2355.20;;;;;;5074406;28;20119;-76
2021/10/18 11:47:23;;;;;;;25.83;20.30;;;435.30;2355.20;;;;;;5075629;28;20123;-74
2021/10/18 11:50:09;;;;;;;30.00;23.05;;;435.30;2355.20;;;;;;5073935;28;20085;-77
2021/10/18 11:52:40;;;;;;;29.92;21.15;;;435.30;2355.20;;;;;;5075475;28;20028;-74
2021/10/18 11:55:08;;;;;;;23.92;19.20;;;435.20;2355.20;;;;;;5074325;28;20495;-76
2021/10/18 11:57:42;;;;;;;34.10;26.17;;;435.20;2355.20;;;;;;5074116;28;20070;-75
2021/10/18 12:00:29;;;;;;;38.60;27.95;;;435.20;2355.20;;;;;;5075614;28;20032;-75
2021/10/18 12:03:01;;;;;;;33.40;25.33;;;410.50;2355.20;;;;;;5075207;28;20086;-75
2021/10/18 12:05:49;;;;;;;26.15;20.73;;;410.50;2355.20;;;;;;5073834;28;20036;-77
2021/10/18 12:08:25;;;;;;;33.42;25.45;;;410.50;2355.20;;;;;;5075632;28;20068;-79
2021/10/18 12:10:52;;;;;;;29.52;23.20;;;410.50;2355.20;;;;;;5074701;28;20054;-76
2021/10/18 12:13:21;;;;;;;26.05;22.60;;;410.50;2355.20;;;;;;5073895;28;20055;-76
2021/10/18 12:15:54;;;;;;;23.15;18.02;;;435.20;2355.20;;;;;;5075191;28;20016;-77
2021/10/18 12:18:26;;;;;;;29.63;24.27;;;435.20;2355.20;;;;;;5073614;28;20028;-79
2021/10/18 12:20:54;;;;;;;29.50;24.10;;;435.20;2355.20;;;;;;5074831;28;20372;-76
2021/10/18 12:23:49;;;;;;;30.23;22.58;;;410.50;2355.20;;;;;;5073345;28;20093;-76
2021/10/18 12:26:17;;;;;;;22.02;19.50;;;410.50;2355.20;;;;;;5064238;28;20028;-75
2021/10/18 12:28:50;;;;;;;23.92;18.38;;;410.50;2355.20;;;;;;5073540;28;20055;-75
2021/10/18 12:31:43;;;;;;;34.58;22.65;;;410.50;2355.20;;;;;;5074405;28;20028;-75
2021/10/18 12:34:22;;;;;;;21.45;17.77;;;410.50;2355.20;;;;;;5073000;28;20409;-78
2021/10/18 12:37:02;;;;;;;25.85;19.83;;;410.50;2355.20;;;;;;5073458;28;20468;-76
2021/10/18 12:39:35;;;;;;;26.40;19.10;;;410.50;2355.20;;;;;;5073096;28;20475;-75
2021/10/18 12:42:07;;;;;;;28.38;17.65;;;410.50;2355.20;;;;;;5074396;28;20044;-77
2021/10/18 12:44:38;;;;;;;20.67;17.60;;;410.50;2355.20;;;;;;5072987;28;20047;-75
2021/10/18 12:47:12;;;;;;;21.35;17.08;;;410.40;2355.20;;;;;;5072657;28;20369;-77
2021/10/18 12:49:38;;;;;;;22.50;18.38;;;410.40;2355.20;;;;;;5073064;28;20024;-76
2021/10/18 12:52:05;;;;;;;22.80;18.90;;;410.50;2355.20;;;;;;5072811;28;20119;-75
2021/10/18 12:54:44;;;;;;;24.45;20.25;;;410.50;2355.20;;;;;;5073030;28;20028;-77
2021/10/18 12:57:10;;;;;;;28.92;20.20;;;410.50;2355.20;;;;;;5074327;28;20024;-77
2021/10/18 12:59:57;;;;;;;20.85;16.60;;;410.50;2355.20;;;;;;5072628;28;20032;-77
2021/10/18 13:02:24;;;;;;;34.05;24.98;;;410.40;2355.20;;;;;;5072647;28;20032;-77
2021/10/18 13:05:09;;;;;;;39.80;31.67;;;410.30;2355.20;;;;;;5074204;28;20032;-78
2021/10/18 13:07:37;;;;;;;55.08;41.05;;;410.30;2355.20;;;;;;5072856;28;20024;-75
2021/10/18 13:10:04;;;;;;;43.67;32.65;;;410.30;2355.20;;;;;;5072700;28;20070;-76
2021/10/18 13:12:30;;;;;;;41.92;33.33;;;410.30;2355.20;;;;;;5072199;28;20028;-75
2021/10/18 13:14:57;;;;;;;46.85;37.25;;;410.20;2355.20;;;;;;5072763;28;20047;-79
2021/10/18 13:17:24;;;;;;;40.58;32.53;;;410.20;2355.20;;;;;;5073669;28;20029;-77
2021/10/18 13:19:51;;;;;;;110.97;68.55;;;410.20;2355.20;;;;;;5072383;28;20036;-76
2021/10/18 13:22:18;;;;;;;82.32;52.90;;;410.20;2355.20;;;;;;5073559;28;20048;-76